Time;durP1;ratioP1;P1;durP2;ratioP2;P2;SDS_P1;SDS_P2;PMS_P1;PMS_P2;Temp;Humidity;BMP_temperature;BMP_pressure;BME280_temperature;BME280_humidity;BME280_pressure;Samples;Min_cycle;Max_cycle;Signal;HPM_P1;HPM_P2
2024/01/24 00:02:16;;;;;;;70.90;41.93;;;2.80;93.80;;;;;;6219186;23;20184;-82
2024/01/24 00:04:43;;;;;;;60.27;40.60;;;2.70;93.90;;;;;;6192883;23;20186;-82
2024/01/24 00:07:11;;;;;;;57.40;37.87;;;2.70;93.90;;;;;;6193286;23;20665;-82
2024/01/24 00:09:38;;;;;;;58.13;38.40;;;2.70;93.90;;;;;;6217128;23;20184;-83
2024/01/24 00:12:06;;;;;;;57.43;39.47;;;2.60;93.90;;;;;;6218799;23;20203;-82
2024/01/24 00:14:33;;;;;;;57.70;38.53;;;2.60;93.90;;;;;;6218148;23;20244;-82
2024/01/24 00:17:01;;;;;;;63.30;38.30;;;2.60;93.90;;;;;;6219312;23;20426;-83
2024/01/24 00:19:29;;;;;;;66.53;41.97;;;2.60;94.00;;;;;;6192894;23;20183;-82
2024/01/24 00:21:57;;;;;;;60.70;40.27;;;2.60;94.00;;;;;;6218312;23;20210;-82
2024/01/24 00:24:24;;;;;;;60.37;39.83;;;2.60;94.00;;;;;;6217767;23;20716;-82
2024/01/24 00:26:52;;;;;;;68.77;41.60;;;2.60;94.00;;;;;;6217893;23;20208;-83
2024/01/24 00:29:19;;;;;;;67.27;43.67;;;2.60;94.00;;;;;;6192449;23;20181;-82
2024/01/24 00:31:49;;;;;;;66.80;42.73;;;2.60;94.00;;;;;;6217590;23;20204;-82
2024/01/24 00:34:16;;;;;;;57.53;39.87;;;2.60;94.00;;;;;;6191775;23;20170;-82
2024/01/24 00:36:43;;;;;;;56.63;39.17;;;2.60;94.10;;;;;;6192116;23;20182;-82
2024/01/24 00:39:13;;;;;;;64.60;41.27;;;2.60;94.00;;;;;;6192483;23;20332;-82
2024/01/24 00:41:43;;;;;;;58.57;38.87;;;2.50;94.00;;;;;;6192716;23;20256;-82
2024/01/24 00:44:10;;;;;;;62.60;39.23;;;2.50;94.00;;;;;;6218736;23;20183;-82
2024/01/24 00:46:38;;;;;;;57.83;38.67;;;2.50;94.30;;;;;;6167917;23;20185;-82
2024/01/24 00:49:09;;;;;;;56.70;35.87;;;2.50;94.00;;;;;;6192099;23;20243;-82
2024/01/24 00:51:37;;;;;;;58.33;38.37;;;2.40;94.00;;;;;;6218718;23;20169;-82
2024/01/24 00:54:05;;;;;;;61.23;39.13;;;2.40;94.10;;;;;;6192753;23;20182;-82
2024/01/24 00:56:32;;;;;;;59.30;37.80;;;2.40;94.10;;;;;;6217226;23;20189;-82
2024/01/24 00:58:59;;;;;;;59.57;38.23;;;2.40;94.10;;;;;;6192014;23;20218;-82
2024/01/24 01:01:26;;;;;;;64.30;38.90;;;2.30;94.00;;;;;;6191926;23;20551;-83
2024/01/24 01:03:54;;;;;;;63.60;38.03;;;2.30;94.10;;;;;;6192418;23;20180;-83
2024/01/24 01:06:22;;;;;;;68.60;39.03;;;2.30;94.10;;;;;;6192181;23;20177;-83
2024/01/24 01:08:49;;;;;;;65.73;38.87;;;2.30;94.20;;;;;;6216618;23;20615;-82
2024/01/24 01:11:17;;;;;;;58.10;38.37;;;2.30;94.20;;;;;;6218188;23;20248;-82
2024/01/24 01:13:44;;;;;;;56.60;35.33;;;2.30;94.20;;;;;;6167643;23;20231;-83
2024/01/24 01:16:12;;;;;;;59.43;38.57;;;2.20;94.10;;;;;;6192081;23;20237;-83
2024/01/24 01:18:39;;;;;;;54.50;36.70;;;2.20;94.00;;;;;;6191668;23;20181;-82
2024/01/24 01:21:06;;;;;;;64.53;39.20;;;2.20;94.00;;;;;;6216568;23;20182;-82
2024/01/24 01:23:33;;;;;;;64.03;40.77;;;2.20;93.90;;;;;;6216354;23;20185;-83
2024/01/24 01:26:01;;;;;;;57.67;39.20;;;2.20;93.90;;;;;;6191410;23;20604;-82
2024/01/24 01:28:29;;;;;;;67.13;40.93;;;2.10;93.90;;;;;;6216852;23;20174;-82
2024/01/24 01:30:56;;;;;;;64.17;39.07;;;2.10;94.00;;;;;;6191238;23;20189;-82
2024/01/24 01:33:23;;;;;;;67.17;42.40;;;2.10;94.10;;;;;;6217029;23;20287;-82
2024/01/24 01:35:50;;;;;;;61.93;41.90;;;2.10;94.10;;;;;;6220360;23;20174;-83
2024/01/24 01:38:20;;;;;;;69.27;43.43;;;2.10;94.20;;;;;;6227134;23;20512;-82
2024/01/24 01:40:48;;;;;;;59.20;38.23;;;2.10;94.30;;;;;;6176072;23;20181;-82
2024/01/24 01:43:15;;;;;;;60.73;37.77;;;2.10;94.30;;;;;;6168709;23;20185;-82
2024/01/24 01:45:43;;;;;;;63.00;39.73;;;2.10;94.30;;;;;;6191742;23;20188;-82
2024/01/24 01:48:11;;;;;;;65.70;41.10;;;2.10;94.40;;;;;;6192798;23;20209;-82
2024/01/24 01:50:39;;;;;;;57.37;39.50;;;2.10;94.40;;;;;;6168861;23;20190;-82
2024/01/24 01:53:07;;;;;;;60.33;39.80;;;2.10;94.40;;;;;;6193028;23;20574;-82
2024/01/24 01:55:36;;;;;;;59.53;37.20;;;2.10;94.40;;;;;;6218730;23;20198;-83
2024/01/24 01:58:04;;;;;;;53.47;36.93;;;2.10;94.40;;;;;;6192695;23;20300;-83
2024/01/24 02:00:32;;;;;;;56.63;37.93;;;2.10;94.40;;;;;;6193535;23;20169;-83
2024/01/24 02:03:00;;;;;;;62.37;40.20;;;2.00;94.40;;;;;;6193425;23;20231;-82
2024/01/24 02:05:29;;;;;;;69.50;41.37;;;2.00;94.40;;;;;;6219929;23;20596;-83
2024/01/24 02:07:56;;;;;;;57.57;37.97;;;2.00;94.50;;;;;;6168182;23;20189;-82
2024/01/24 02:10:24;;;;;;;61.43;41.27;;;2.00;94.50;;;;;;6193310;23;20264;-82
2024/01/24 02:12:51;;;;;;;64.37;41.07;;;2.00;94.50;;;;;;6192105;23;20349;-83
2024/01/24 02:15:19;;;;;;;52.27;38.57;;;2.00;94.50;;;;;;6192872;23;20596;-83
2024/01/24 02:17:47;;;;;;;59.23;40.13;;;2.00;94.50;;;;;;6193060;23;20185;-83
2024/01/24 02:20:18;;;;;;;61.17;41.67;;;2.00;94.60;;;;;;6217444;23;20188;-83
2024/01/24 02:22:45;;;;;;;64.20;42.23;;;2.00;94.60;;;;;;6217615;23;20185;-82
2024/01/24 02:25:12;;;;;;;67.07;39.80;;;2.00;94.50;;;;;;6217745;23;20667;-83
2024/01/24 02:27:39;;;;;;;61.93;40.80;;;2.00;94.60;;;;;;6217748;23;20186;-83
2024/01/24 02:30:10;;;;;;;65.07;42.97;;;1.90;94.60;;;;;;6216982;23;20188;-83
2024/01/24 02:32:39;;;;;;;69.57;44.07;;;2.00;94.70;;;;;;6192626;23;20201;-82
2024/01/24 02:35:07;;;;;;;61.47;41.20;;;2.00;94.80;;;;;;6168103;23;20243;-83
2024/01/24 02:37:34;;;;;;;65.63;44.10;;;2.00;94.80;;;;;;6168331;23;20201;-82
2024/01/24 02:40:02;;;;;;;64.07;40.87;;;2.00;94.80;;;;;;6217983;23;20185;-83
2024/01/24 02:42:30;;;;;;;60.63;41.93;;;2.00;94.90;;;;;;6168594;23;20184;-83
2024/01/24 02:44:58;;;;;;;59.40;40.63;;;2.00;94.90;;;;;;6193281;23;20176;-83
2024/01/24 02:47:26;;;;;;;59.43;42.60;;;2.00;94.90;;;;;;6167845;23;20200;-82
2024/01/24 02:49:53;;;;;;;68.30;44.30;;;2.00;94.90;;;;;;6191955;23;20188;-83
2024/01/24 02:52:21;;;;;;;70.50;43.40;;;2.00;94.90;;;;;;6217746;23;20211;-83
2024/01/24 02:54:51;;;;;;;64.27;41.10;;;2.00;94.80;;;;;;6217490;23;20152;-83
2024/01/24 02:57:18;;;;;;;64.57;41.33;;;2.00;94.80;;;;;;6192801;23;20265;-82
2024/01/24 02:59:46;;;;;;;63.10;40.73;;;2.00;94.80;;;;;;6217191;23;20229;-83
2024/01/24 03:02:14;;;;;;;64.73;40.63;;;2.00;94.80;;;;;;6217041;23;20250;-83
2024/01/24 03:04:41;;;;;;;59.80;39.97;;;2.00;94.90;;;;;;6217810;23;20243;-82
2024/01/24 03:07:09;;;;;;;70.17;43.87;;;2.00;94.90;;;;;;6167873;23;20596;-82
2024/01/24 03:09:37;;;;;;;66.33;43.30;;;2.00;94.80;;;;;;6192424;23;20485;-83
2024/01/24 03:12:06;;;;;;;73.40;42.77;;;2.00;94.80;;;;;;6191839;23;20199;-82
2024/01/24 03:14:33;;;;;;;62.77;42.93;;;2.00;94.80;;;;;;6167424;23;20181;-83
2024/01/24 03:17:01;;;;;;;68.30;42.77;;;2.00;94.90;;;;;;6192424;23;20600;-83
2024/01/24 03:19:28;;;;;;;58.33;38.73;;;2.00;94.90;;;;;;6217611;23;20173;-82
2024/01/24 03:21:55;;;;;;;66.93;43.80;;;1.90;95.00;;;;;;6218132;23;20166;-83
2024/01/24 03:24:24;;;;;;;58.70;41.10;;;1.90;95.00;;;;;;6218516;23;20208;-83
2024/01/24 03:26:52;;;;;;;68.43;44.37;;;1.90;95.10;;;;;;6216900;23;20192;-82
2024/01/24 03:29:19;;;;;;;67.27;43.00;;;1.90;95.10;;;;;;6192142;23;20184;-82
2024/01/24 03:31:47;;;;;;;57.83;40.00;;;1.90;95.10;;;;;;6192264;23;20176;-82
2024/01/24 03:34:14;;;;;;;62.37;40.70;;;2.00;95.20;;;;;;6192649;23;20271;-83
2024/01/24 03:36:43;;;;;;;58.40;39.90;;;2.00;95.20;;;;;;6218442;23;20651;-83
2024/01/24 03:39:11;;;;;;;58.07;37.97;;;1.90;95.10;;;;;;6217210;23;20215;-82
2024/01/24 03:41:39;;;;;;;60.47;38.23;;;1.90;95.20;;;;;;6167973;23;20188;-83
2024/01/24 03:44:06;;;;;;;60.13;38.13;;;2.00;95.20;;;;;;6218441;23;20207;-83
2024/01/24 03:46:34;;;;;;;64.00;39.23;;;1.90;95.20;;;;;;6192374;23;20202;-82
2024/01/24 03:49:01;;;;;;;60.37;39.93;;;1.90;95.10;;;;;;6192481;23;20577;-83
2024/01/24 03:51:30;;;;;;;60.27;40.30;;;1.90;95.20;;;;;;6218179;23;20201;-83
2024/01/24 03:53:58;;;;;;;56.43;38.10;;;1.90;95.20;;;;;;6192396;23;20239;-83
2024/01/24 03:56:25;;;;;;;55.90;37.13;;;1.90;95.20;;;;;;6191268;23;20213;-83
2024/01/24 03:58:53;;;;;;;63.93;39.43;;;1.90;95.20;;;;;;6157126;23;20210;-83
2024/01/24 04:01:20;;;;;;;63.70;39.50;;;1.80;95.20;;;;;;6182102;23;20177;-82
2024/01/24 04:03:48;;;;;;;64.33;38.70;;;1.90;95.30;;;;;;6157344;23;20179;-83
2024/01/24 04:06:15;;;;;;;63.37;39.57;;;1.90;95.30;;;;;;6156972;23;20186;-83
2024/01/24 04:08:44;;;;;;;60.93;36.87;;;1.80;95.30;;;;;;6157301;23;20534;-83
2024/01/24 04:11:11;;;;;;;55.20;35.30;;;1.80;95.30;;;;;;6132277;23;20552;-83
2024/01/24 04:13:42;;;;;;;55.47;34.90;;;1.80;95.30;;;;;;6182550;23;20206;-83
2024/01/24 04:16:10;;;;;;;57.57;37.23;;;1.80;95.30;;;;;;6136216;23;20207;-83
2024/01/24 04:18:38;;;;;;;69.17;37.37;;;1.80;95.30;;;;;;6168744;23;20179;-83
2024/01/24 04:21:06;;;;;;;55.67;37.43;;;1.80;95.40;;;;;;6165682;23;20182;-83
2024/01/24 04:23:34;;;;;;;63.67;37.53;;;1.80;95.50;;;;;;6159516;23;20269;-83
2024/01/24 04:26:04;;;;;;;55.70;36.73;;;1.70;95.50;;;;;;6158563;23;20281;-83
2024/01/24 04:28:34;;;;;;;56.30;36.73;;;1.80;95.60;;;;;;6157302;23;20257;-84
2024/01/24 04:31:02;;;;;;;60.30;38.77;;;1.80;95.50;;;;;;6157372;23;20182;-83
2024/01/24 04:33:30;;;;;;;61.37;37.90;;;1.80;95.50;;;;;;6156678;23;20211;-83
2024/01/24 04:35:57;;;;;;;57.27;37.37;;;1.80;95.60;;;;;;6157124;23;20270;-83
2024/01/24 04:38:25;;;;;;;56.70;38.50;;;1.80;95.60;;;;;;6156777;23;20175;-83
2024/01/24 04:40:53;;;;;;;62.33;37.17;;;1.80;95.60;;;;;;6158217;23;20218;-83
2024/01/24 04:43:20;;;;;;;58.93;37.33;;;1.80;95.60;;;;;;6157764;23;20172;-83
2024/01/24 04:45:48;;;;;;;67.30;37.07;;;1.80;95.50;;;;;;6158130;23;20178;-83
2024/01/24 04:48:16;;;;;;;59.03;37.30;;;1.80;95.60;;;;;;6158183;23;20262;-84
2024/01/24 04:50:43;;;;;;;54.87;35.37;;;1.80;95.60;;;;;;6158238;23;20176;-83
2024/01/24 04:53:11;;;;;;;64.10;38.00;;;1.80;95.60;;;;;;6156756;23;20641;-83
2024/01/24 04:55:38;;;;;;;59.13;36.33;;;1.80;95.70;;;;;;6156986;23;20584;-83
2024/01/24 04:58:05;;;;;;;61.33;39.80;;;1.80;95.70;;;;;;6157189;23;20198;-83
2024/01/24 05:00:33;;;;;;;59.63;37.47;;;1.80;95.70;;;;;;6157433;23;20204;-83
2024/01/24 05:03:01;;;;;;;62.50;37.00;;;1.90;95.80;;;;;;6156653;23;20241;-83
2024/01/24 05:05:28;;;;;;;58.73;35.70;;;1.80;95.80;;;;;;6156979;23;20214;-83
2024/01/24 05:07:55;;;;;;;57.67;36.97;;;1.90;95.90;;;;;;6156521;23;20238;-83
2024/01/24 05:10:25;;;;;;;64.77;35.67;;;1.90;95.90;;;;;;6182041;23;20194;-83
2024/01/24 05:12:52;;;;;;;59.40;36.67;;;1.90;95.90;;;;;;6156596;23;20199;-83
2024/01/24 05:15:20;;;;;;;72.33;36.67;;;1.90;95.90;;;;;;6157233;23;20175;-83
2024/01/24 05:17:48;;;;;;;67.73;37.53;;;1.90;96.00;;;;;;6182392;23;20491;-83
2024/01/24 05:20:17;;;;;;;56.57;36.30;;;1.90;96.00;;;;;;6182096;23;20183;-83
2024/01/24 05:22:46;;;;;;;55.90;36.20;;;2.00;96.00;;;;;;6183332;23;20171;-83
2024/01/24 05:25:13;;;;;;;54.07;34.80;;;2.00;96.00;;;;;;6159202;23;20262;-83
2024/01/24 05:27:41;;;;;;;56.53;36.13;;;2.00;96.00;;;;;;6159264;23;20253;-83
2024/01/24 05:30:09;;;;;;;60.43;35.17;;;2.00;96.00;;;;;;6158513;23;20186;-83
2024/01/24 05:32:56;;;;;;;52.67;33.93;;;1.90;96.00;;;;;;6158518;23;20266;-83
2024/01/24 05:35:24;;;;;;;52.10;34.23;;;1.90;96.00;;;;;;6158878;23;20198;-83
2024/01/24 05:37:52;;;;;;;59.73;33.97;;;1.90;96.00;;;;;;6158719;23;20265;-83
2024/01/24 05:40:22;;;;;;;53.87;33.97;;;1.90;96.00;;;;;;6158880;23;20217;-83
2024/01/24 05:42:49;;;;;;;52.37;34.50;;;1.90;96.00;;;;;;6158170;23;20178;-83
2024/01/24 05:45:20;;;;;;;49.43;31.67;;;1.90;96.10;;;;;;6183025;23;20159;-83
2024/01/24 05:47:48;;;;;;;57.20;34.33;;;1.90;96.00;;;;;;6158655;23;20174;-83
2024/01/24 05:50:15;;;;;;;52.77;33.87;;;1.80;96.00;;;;;;6159000;23;20599;-83
2024/01/24 05:52:43;;;;;;;52.43;34.50;;;1.80;96.10;;;;;;6158190;23;20204;-84
2024/01/24 05:55:12;;;;;;;56.27;33.87;;;1.80;96.10;;;;;;6158763;23;20195;-84
2024/01/24 05:57:42;;;;;;;57.60;34.53;;;1.90;96.20;;;;;;6166871;23;20174;-84
2024/01/24 06:00:14;;;;;;;57.63;32.70;;;1.90;96.20;;;;;;6218508;23;20232;-83
2024/01/24 06:02:43;;;;;;;57.97;33.60;;;1.80;96.20;;;;;;6193743;23;20170;-83
2024/01/24 06:05:11;;;;;;;52.60;33.00;;;1.80;96.20;;;;;;6218481;23;20604;-84
2024/01/24 06:07:39;;;;;;;50.43;31.90;;;1.80;96.10;;;;;;6194203;23;20184;-84
2024/01/24 06:10:07;;;;;;;51.90;33.20;;;1.80;96.10;;;;;;6169222;23;20192;-84
2024/01/24 06:12:35;;;;;;;51.47;34.10;;;1.80;96.20;;;;;;6169236;23;20264;-84
2024/01/24 06:15:03;;;;;;;52.50;34.20;;;1.70;96.20;;;;;;6169255;23;20205;-84
2024/01/24 06:17:32;;;;;;;47.77;31.13;;;1.70;96.20;;;;;;6194075;23;20173;-84
2024/01/24 06:20:01;;;;;;;49.50;33.63;;;1.70;96.20;;;;;;6193650;23;20180;-84
2024/01/24 06:22:29;;;;;;;50.63;33.67;;;1.70;96.20;;;;;;6194251;23;20182;-84
2024/01/24 06:25:01;;;;;;;47.97;33.03;;;1.70;96.30;;;;;;6219211;23;20220;-85
2024/01/24 06:27:37;;;;;;;52.03;32.87;;;1.70;96.30;;;;;;6194980;23;20550;-84
2024/01/24 06:30:09;;;;;;;61.77;35.17;;;1.70;96.40;;;;;;6169464;23;20177;-84
2024/01/24 06:32:49;;;;;;;55.37;34.47;;;1.70;96.40;;;;;;6193583;23;20178;-84
2024/01/24 06:35:19;;;;;;;52.23;32.63;;;1.70;96.40;;;;;;6169142;23;20180;-84
2024/01/24 06:37:50;;;;;;;48.73;32.53;;;1.80;96.40;;;;;;6168628;23;20496;-84
2024/01/24 06:40:21;;;;;;;49.20;32.80;;;1.80;96.40;;;;;;6194859;23;20161;-84
2024/01/24 06:42:50;;;;;;;59.13;33.73;;;1.80;96.40;;;;;;6169386;23;20169;-84
2024/01/24 06:45:19;;;;;;;47.70;31.53;;;1.80;96.30;;;;;;6218740;23;20181;-85
2024/01/24 06:47:47;;;;;;;61.67;34.57;;;1.80;96.40;;;;;;6193484;23;20210;-85
2024/01/24 06:50:17;;;;;;;52.37;33.07;;;1.70;96.40;;;;;;6194651;23;20244;-85
2024/01/24 06:52:45;;;;;;;57.73;33.13;;;1.70;96.40;;;;;;6170931;23;20216;-85
2024/01/24 06:55:14;;;;;;;58.47;32.83;;;1.70;96.40;;;;;;6173431;23;20194;-85
2024/01/24 06:57:44;;;;;;;49.93;32.13;;;1.80;96.50;;;;;;6205639;23;20652;-85
2024/01/24 07:00:12;;;;;;;58.20;33.70;;;1.80;96.40;;;;;;6177781;23;20231;-85
2024/01/24 07:02:40;;;;;;;48.93;32.27;;;1.80;96.40;;;;;;6171456;23;20182;-84
2024/01/24 07:05:08;;;;;;;47.50;31.73;;;1.80;96.50;;;;;;6169798;23;20178;-85
2024/01/24 07:07:38;;;;;;;48.27;31.07;;;1.80;96.50;;;;;;6170362;23;20189;-85
2024/01/24 07:10:10;;;;;;;46.43;29.73;;;1.80;96.40;;;;;;6194245;23;20247;-84
2024/01/24 07:12:45;;;;;;;56.43;31.70;;;1.80;96.40;;;;;;6194842;23;20570;-85
2024/01/24 07:15:15;;;;;;;51.47;31.47;;;1.80;96.40;;;;;;6218649;23;20227;-84
2024/01/24 07:17:44;;;;;;;48.00;31.10;;;1.80;96.40;;;;;;6168823;23;20179;-84
2024/01/24 07:20:13;;;;;;;58.90;31.60;;;1.90;96.40;;;;;;6169977;23;20187;-84
2024/01/24 07:22:41;;;;;;;47.63;32.47;;;1.90;96.30;;;;;;6218269;23;20185;-84
2024/01/24 07:25:09;;;;;;;45.23;30.83;;;1.90;96.20;;;;;;6219824;23;20188;-85
2024/01/24 07:27:38;;;;;;;50.97;31.87;;;1.90;96.20;;;;;;6169153;23;20184;-84
2024/01/24 07:30:09;;;;;;;44.17;30.07;;;2.00;96.20;;;;;;6169322;23;20223;-85
2024/01/24 07:32:40;;;;;;;47.40;32.43;;;2.00;96.20;;;;;;6193526;23;20182;-85
2024/01/24 07:35:09;;;;;;;51.20;31.07;;;2.00;96.30;;;;;;6218445;23;20199;-84
2024/01/24 07:37:37;;;;;;;56.33;33.97;;;2.00;96.30;;;;;;6193911;23;20272;-84
2024/01/24 07:40:07;;;;;;;47.30;30.83;;;2.10;96.40;;;;;;6193923;23;20213;-84
2024/01/24 07:42:35;;;;;;;51.30;30.37;;;2.10;96.40;;;;;;6218405;23;20186;-84
2024/01/24 07:45:04;;;;;;;47.90;31.20;;;2.20;96.40;;;;;;6192914;23;20240;-83
2024/01/24 07:47:32;;;;;;;50.50;31.83;;;2.20;96.50;;;;;;6193106;23;20196;-84
2024/01/24 07:50:03;;;;;;;49.90;33.10;;;2.30;96.50;;;;;;6193325;23;20196;-83
2024/01/24 07:52:34;;;;;;;50.23;31.50;;;2.40;96.50;;;;;;6193042;23;20310;-84
2024/01/24 07:55:10;;;;;;;45.67;30.77;;;2.40;96.60;;;;;;6219129;23;20201;-83
2024/01/24 07:57:42;;;;;;;46.90;31.40;;;2.50;96.60;;;;;;6193450;23;20197;-83
2024/01/24 08:00:16;;;;;;;47.30;30.53;;;2.60;96.60;;;;;;6195063;23;20205;-83
2024/01/24 08:02:46;;;;;;;50.23;30.20;;;2.60;96.70;;;;;;6194159;23;20173;-82
2024/01/24 08:05:19;;;;;;;47.90;30.10;;;2.80;96.70;;;;;;6194341;23;20634;-82
2024/01/24 08:07:47;;;;;;;46.33;30.97;;;2.90;96.70;;;;;;6193739;23;20272;-83
2024/01/24 08:10:17;;;;;;;46.57;31.03;;;2.90;96.60;;;;;;6219163;23;20276;-83
2024/01/24 08:12:48;;;;;;;52.20;31.23;;;3.00;96.60;;;;;;6219283;23;20178;-83
2024/01/24 08:15:17;;;;;;;51.63;31.47;;;3.10;96.60;;;;;;6193708;23;20207;-83
2024/01/24 08:17:45;;;;;;;50.50;31.70;;;3.20;96.50;;;;;;6193117;23;20555;-82
2024/01/24 08:20:13;;;;;;;47.77;31.13;;;3.20;96.70;;;;;;6193616;23;20185;-83
2024/01/24 08:22:42;;;;;;;47.10;31.20;;;3.30;96.50;;;;;;6194163;23;20182;-83
2024/01/24 08:25:10;;;;;;;47.93;31.43;;;3.30;96.50;;;;;;6192830;23;20197;-83
2024/01/24 08:27:38;;;;;;;46.97;30.37;;;3.40;96.50;;;;;;6192937;23;20197;-83
2024/01/24 08:30:06;;;;;;;46.83;31.37;;;3.50;96.50;;;;;;6219514;23;20210;-83
2024/01/24 08:32:40;;;;;;;47.97;31.03;;;3.60;96.50;;;;;;6193661;23;20170;-83
2024/01/24 08:35:08;;;;;;;46.77;30.63;;;3.70;96.50;;;;;;6192632;23;20237;-83
2024/01/24 08:37:36;;;;;;;40.67;27.73;;;3.80;96.40;;;;;;6193336;23;20174;-82
2024/01/24 08:40:05;;;;;;;44.30;30.77;;;3.90;96.40;;;;;;6219331;23;20177;-83
2024/01/24 08:42:33;;;;;;;47.80;29.23;;;4.00;96.40;;;;;;6168006;23;20178;-83
2024/01/24 08:45:02;;;;;;;45.23;30.17;;;4.20;96.30;;;;;;6217960;23;20177;-83
2024/01/24 08:47:30;;;;;;;45.30;29.67;;;4.30;96.20;;;;;;6193215;23;20588;-83
2024/01/24 08:49:58;;;;;;;47.80;30.90;;;4.40;96.20;;;;;;6192814;23;20511;-83
2024/01/24 08:52:26;;;;;;;42.80;29.90;;;4.60;96.10;;;;;;6168230;23;20220;-82
2024/01/24 08:54:53;;;;;;;43.27;28.67;;;4.70;96.00;;;;;;6218382;23;20198;-83
2024/01/24 08:57:23;;;;;;;43.10;27.77;;;4.80;95.70;;;;;;6192436;23;20178;-83
2024/01/24 08:59:55;;;;;;;41.57;29.73;;;4.80;95.50;;;;;;6187628;23;20175;-83
2024/01/24 09:02:24;;;;;;;45.87;30.47;;;4.80;95.30;;;;;;6211900;23;20159;-83
2024/01/24 09:04:53;;;;;;;48.37;31.23;;;4.70;95.00;;;;;;6187397;23;20660;-82
2024/01/24 09:07:22;;;;;;;46.47;31.37;;;4.70;95.00;;;;;;6187828;23;20179;-83
2024/01/24 09:09:53;;;;;;;49.17;31.67;;;4.60;95.00;;;;;;6212395;23;20582;-83
2024/01/24 09:12:23;;;;;;;53.77;32.63;;;4.60;95.10;;;;;;6164117;23;20179;-83
2024/01/24 09:14:52;;;;;;;51.97;32.40;;;4.60;95.30;;;;;;6212006;23;20221;-83
2024/01/24 09:17:24;;;;;;;49.70;33.13;;;4.70;95.40;;;;;;6213250;23;20175;-82
2024/01/24 09:19:54;;;;;;;48.40;31.77;;;4.80;95.50;;;;;;6188756;23;20166;-83
2024/01/24 09:22:21;;;;;;;48.57;32.10;;;4.90;95.50;;;;;;6187867;23;20156;-82
2024/01/24 09:24:49;;;;;;;52.63;33.37;;;5.10;95.50;;;;;;6212723;23;20183;-81
2024/01/24 09:27:18;;;;;;;51.23;32.10;;;5.20;95.40;;;;;;6187965;23;20187;-82
2024/01/24 09:29:46;;;;;;;48.33;33.43;;;5.40;95.30;;;;;;6163980;23;20183;-81
2024/01/24 09:32:14;;;;;;;44.23;32.97;;;5.50;95.20;;;;;;6215519;23;20179;-81
2024/01/24 09:34:42;;;;;;;52.83;34.43;;;5.60;95.00;;;;;;6195339;23;20249;-81
2024/01/24 09:37:11;;;;;;;52.00;34.80;;;5.70;94.80;;;;;;6171679;23;20190;-82
2024/01/24 09:39:39;;;;;;;49.23;33.93;;;5.90;94.70;;;;;;6165047;23;20183;-82
2024/01/24 09:42:23;;;;;;;50.23;33.70;;;6.00;94.60;;;;;;6212877;23;20183;-81
2024/01/24 09:44:52;;;;;;;47.77;34.23;;;6.10;94.40;;;;;;6187302;23;20226;-82
2024/01/24 09:47:27;;;;;;;53.40;35.63;;;6.10;94.10;;;;;;6162785;23;20179;-82
2024/01/24 09:49:59;;;;;;;53.03;33.77;;;6.10;94.00;;;;;;6189227;23;20159;-81
2024/01/24 09:52:27;;;;;;;55.17;35.03;;;6.10;94.10;;;;;;6187270;23;20159;-81
2024/01/24 09:54:59;;;;;;;62.90;39.77;;;6.10;94.00;;;;;;6186951;23;20207;-81
2024/01/24 09:57:27;;;;;;;51.57;35.77;;;6.20;94.20;;;;;;6189048;23;20230;-82
2024/01/24 09:59:57;;;;;;;52.33;36.67;;;6.30;94.30;;;;;;6218520;23;20158;-81
2024/01/24 10:02:26;;;;;;;48.00;33.07;;;6.50;94.40;;;;;;6192563;23;20182;-82
2024/01/24 10:04:59;;;;;;;51.33;34.50;;;6.70;94.30;;;;;;6192666;23;20191;-82
2024/01/24 10:07:28;;;;;;;55.13;34.50;;;6.80;94.00;;;;;;6192706;23;20179;-82
2024/01/24 10:10:09;;;;;;;49.23;33.93;;;6.90;93.80;;;;;;6169582;23;20240;-82
2024/01/24 10:12:44;;;;;;;56.97;34.67;;;6.90;93.50;;;;;;6168212;23;20237;-81
2024/01/24 10:15:13;;;;;;;43.70;32.40;;;6.90;93.40;;;;;;6193367;23;20194;-81
2024/01/24 10:17:43;;;;;;;49.47;33.13;;;6.90;93.30;;;;;;6193620;23;20206;-82
2024/01/24 10:20:15;;;;;;;53.23;35.07;;;6.90;93.20;;;;;;6219793;23;20172;-82
2024/01/24 10:22:44;;;;;;;59.70;37.27;;;6.80;93.20;;;;;;6193920;23;20539;-82
2024/01/24 10:25:13;;;;;;;54.30;38.00;;;6.80;93.40;;;;;;6193278;23;20179;-82
2024/01/24 10:27:41;;;;;;;49.33;35.23;;;6.80;93.60;;;;;;6194412;23;20183;-82
2024/01/24 10:30:14;;;;;;;57.57;37.60;;;6.90;93.60;;;;;;6218313;23;20179;-81
2024/01/24 10:32:49;;;;;;;54.97;37.30;;;7.00;93.60;;;;;;6169206;23;20496;-84
2024/01/24 10:35:17;;;;;;;52.47;37.63;;;7.10;93.60;;;;;;6193294;23;20501;-82
2024/01/24 10:37:48;;;;;;;49.60;36.33;;;7.30;93.60;;;;;;6193244;23;20595;-82
2024/01/24 10:40:17;;;;;;;54.27;36.77;;;7.50;93.60;;;;;;6219817;23;20230;-82
2024/01/24 10:42:49;;;;;;;53.23;37.60;;;7.60;93.50;;;;;;6168480;23;20175;-82
2024/01/24 10:45:20;;;;;;;56.87;38.07;;;7.80;93.40;;;;;;6193821;23;20186;-82
2024/01/24 10:47:55;;;;;;;53.00;34.47;;;7.90;93.10;;;;;;6193338;23;20180;-82
2024/01/24 10:50:25;;;;;;;60.53;40.13;;;8.10;93.10;;;;;;6193248;23;20185;-82
2024/01/24 10:52:55;;;;;;;52.83;38.63;;;8.20;93.00;;;;;;6168922;23;20203;-82
2024/01/24 10:55:24;;;;;;;54.40;41.03;;;8.40;92.80;;;;;;6168859;23;20219;-82
2024/01/24 10:57:53;;;;;;;51.90;38.70;;;8.40;92.60;;;;;;6182786;23;20208;-82
2024/01/24 11:00:24;;;;;;;53.80;39.80;;;8.50;92.50;;;;;;6158397;23;20164;-82
2024/01/24 11:02:54;;;;;;;54.23;40.20;;;8.60;92.40;;;;;;6183109;23;20199;-83
2024/01/24 11:05:28;;;;;;;58.73;40.33;;;8.60;92.30;;;;;;6182836;23;20193;-82
2024/01/24 11:08:21;;;;;;;54.00;40.70;;;8.60;92.30;;;;;;6183472;23;20565;-83
2024/01/24 11:11:05;;;;;;;50.73;37.43;;;8.70;92.20;;;;;;6183478;23;20185;-82
2024/01/24 11:13:35;;;;;;;61.10;42.50;;;8.80;92.00;;;;;;6158265;23;20514;-82
2024/01/24 11:16:26;;;;;;;55.17;41.07;;;8.80;91.80;;;;;;6159990;23;20268;-83
2024/01/24 11:19:22;;;;;;;59.77;41.07;;;8.90;91.60;;;;;;6159227;23;20461;-82
2024/01/24 11:21:53;;;;;;;61.03;41.50;;;8.90;91.40;;;;;;6158393;23;20163;-82
2024/01/24 11:24:44;;;;;;;52.30;40.77;;;9.00;91.50;;;;;;6158423;23;20175;-83
2024/01/24 11:27:36;;;;;;;68.00;44.73;;;8.90;91.50;;;;;;6182795;23;20268;-82
2024/01/24 11:30:25;;;;;;;62.13;44.63;;;9.00;91.60;;;;;;6158397;23;20185;-82
2024/01/24 11:32:55;;;;;;;56.20;41.40;;;9.00;91.60;;;;;;6158116;23;20170;-83
2024/01/24 11:35:40;;;;;;;63.37;43.90;;;9.10;91.60;;;;;;6182598;23;20199;-83
2024/01/24 11:38:21;;;;;;;57.60;42.50;;;9.30;91.40;;;;;;6183018;23;20256;-83
2024/01/24 11:41:10;;;;;;;62.87;44.90;;;9.40;91.20;;;;;;6182877;23;20171;-82
2024/01/24 11:43:44;;;;;;;63.67;45.63;;;9.50;90.90;;;;;;6182854;23;20238;-82
2024/01/24 11:46:14;;;;;;;62.63;44.43;;;9.50;90.80;;;;;;6158117;23;20161;-82
2024/01/24 11:48:42;;;;;;;69.97;45.80;;;9.50;90.70;;;;;;6182216;23;20207;-83
2024/01/24 11:51:16;;;;;;;69.63;48.33;;;9.50;90.70;;;;;;6157979;23;20181;-83
2024/01/24 11:53:46;;;;;;;65.97;46.77;;;9.60;90.80;;;;;;6158339;23;20174;-82
2024/01/24 11:56:18;;;;;;;71.40;50.63;;;9.70;90.80;;;;;;6157582;23;20622;-82
2024/01/24 11:58:48;;;;;;;65.87;46.97;;;9.80;90.70;;;;;;6174986;23;20304;-83
2024/01/24 12:01:17;;;;;;;64.87;47.67;;;9.90;90.60;;;;;;6213212;23;20198;-82
2024/01/24 12:03:49;;;;;;;65.83;46.43;;;9.90;90.50;;;;;;6188309;23;20198;-83
2024/01/24 12:06:18;;;;;;;66.00;48.70;;;10.00;90.20;;;;;;6139570;23;20170;-82
2024/01/24 12:08:52;;;;;;;72.77;46.57;;;10.10;90.10;;;;;;6166278;23;20179;-81
2024/01/24 12:11:27;;;;;;;66.77;47.03;;;10.10;90.00;;;;;;6217955;23;20193;-82
2024/01/24 12:14:00;;;;;;;67.90;47.13;;;10.10;90.00;;;;;;6221566;23;20180;-82
2024/01/24 12:16:30;;;;;;;63.63;46.40;;;10.10;90.10;;;;;;6167232;23;20199;-82
2024/01/24 12:18:58;;;;;;;70.10;46.37;;;10.10;90.00;;;;;;6164558;23;20171;-83
2024/01/24 12:21:33;;;;;;;77.50;49.23;;;10.10;89.70;;;;;;6188587;23;20156;-82
2024/01/24 12:24:02;;;;;;;71.17;49.07;;;10.10;89.50;;;;;;6186785;23;20185;-82
2024/01/24 12:26:31;;;;;;;75.77;49.33;;;10.00;89.20;;;;;;6187753;23;20170;-83
2024/01/24 12:29:04;;;;;;;66.80;47.03;;;10.00;89.10;;;;;;6165274;23;20252;-83
2024/01/24 12:31:40;;;;;;;68.63;48.77;;;10.00;88.80;;;;;;6163972;23;20178;-83
2024/01/24 12:34:08;;;;;;;65.60;48.50;;;9.90;88.60;;;;;;6187102;23;20649;-83
2024/01/24 12:36:37;;;;;;;76.30;48.87;;;10.00;88.30;;;;;;6162599;23;20507;-82
2024/01/24 12:39:05;;;;;;;75.97;51.37;;;9.90;88.60;;;;;;6211700;23;20182;-85
2024/01/24 12:41:33;;;;;;;69.67;49.00;;;10.00;89.00;;;;;;6162924;23;20187;-83
2024/01/24 12:44:01;;;;;;;79.13;51.90;;;10.00;88.70;;;;;;6187213;23;20175;-82
2024/01/24 12:46:31;;;;;;;75.17;49.63;;;10.00;88.30;;;;;;6186644;23;20240;-83
2024/01/24 12:48:59;;;;;;;74.90;50.00;;;10.00;88.20;;;;;;6163069;23;20200;-83